Terminal Aerodrome Forecast
Issued by NWS Mobile, AL

Current Version | Previous Version | Text Only | Print | Product List | Glossary On
Versions: 1 2 3 4 5 6 7 8 9 10 11 12 13 14 15 16 17 18 19 20 21 22 23 24 25 26 27 28 29 30 31 32 33 34 35 36 37 38 39 40 41 42 43 44 45 46 47 48 49 50
110
FTUS44 KMOB 250537
TAFPNS
TAF
KPNS 250537Z 2506/2606 17009KT P6SM SCT023 BKN030 OVC045
     FM250900 18007KT 2SM BR VCSH OVC004
      TEMPO 2510/2513 1/2SM FG OVC002
     FM251500 20010KT 5SM BR VCSH BKN025
     FM252100 19008KT P6SM SCT250 PROB30 2521/2524 5SM SHRA BKN015=

USA.gov is the U.S. government's official web portal to all federal, state and local government web resources and services.